createdAt,value
2023-02-10T00:00:00.649Z,1014.47
2023-02-10T00:01:00.603Z,1014.54
2023-02-10T00:02:00.600Z,1014.60
2023-02-10T00:03:00.729Z,1014.57
2023-02-10T00:04:00.620Z,1014.57
2023-02-10T00:05:00.574Z,1014.60
2023-02-10T00:06:00.574Z,1014.61
2023-02-10T00:07:00.553Z,1014.68
2023-02-10T00:08:00.568Z,1014.64
2023-02-10T00:09:00.536Z,1014.67
2023-02-10T00:10:00.534Z,1014.67
2023-02-10T00:11:00.505Z,1014.68
2023-02-10T00:12:00.529Z,1014.66
2023-02-10T00:13:00.507Z,1014.68
2023-02-10T00:14:00.506Z,1014.66
2023-02-10T00:15:00.476Z,1014.67
2023-02-10T00:16:00.492Z,1014.82
2023-02-10T00:17:00.472Z,1014.71
2023-02-10T00:18:00.477Z,1014.63
2023-02-10T00:19:00.445Z,1014.72
2023-02-10T00:20:00.427Z,1014.71
2023-02-10T00:21:00.405Z,1014.75
2023-02-10T00:22:00.400Z,1014.72
2023-02-10T00:23:00.398Z,1014.70
2023-02-10T00:24:00.376Z,1014.74
2023-02-10T00:25:00.367Z,1014.76
2023-02-10T00:26:00.380Z,1014.82
2023-02-10T00:27:00.356Z,1014.81
2023-02-10T00:28:00.412Z,1014.79
2023-02-10T00:29:00.341Z,1014.80
2023-02-10T00:30:00.316Z,1014.85
2023-02-10T00:31:00.317Z,1014.83
2023-02-10T00:32:00.299Z,1014.86
2023-02-10T00:33:00.310Z,1014.85
2023-02-10T00:34:00.283Z,1014.92
2023-02-10T00:35:00.278Z,1014.90
2023-02-10T00:36:00.331Z,1014.95
2023-02-10T00:37:00.266Z,1014.98
2023-02-10T00:38:00.249Z,1014.92
2023-02-10T00:39:00.218Z,1014.97
2023-02-10T00:40:00.749Z,1015.02
2023-02-10T00:41:00.205Z,1014.96
2023-02-10T00:42:00.198Z,1014.94
2023-02-10T00:43:00.206Z,1014.98
2023-02-10T00:44:00.182Z,1014.95
2023-02-10T00:45:00.168Z,1015.02
2023-02-10T00:46:00.167Z,1014.98
2023-02-10T00:47:00.208Z,1014.92
2023-02-10T00:48:00.168Z,1014.92
2023-02-10T00:49:00.128Z,1015.00
2023-02-10T00:50:00.144Z,1015.03
2023-02-10T00:51:00.095Z,1014.96
2023-02-10T00:52:00.141Z,1014.97
2023-02-10T00:53:00.111Z,1014.99
2023-02-10T00:54:00.097Z,1014.99
2023-02-10T00:55:00.082Z,1015.01
2023-02-10T00:56:00.051Z,1015.05
2023-02-10T00:57:00.038Z,1015.00
2023-02-10T00:58:00.049Z,1015.00
2023-02-10T00:59:00.056Z,1015.08
2023-02-10T01:00:00.023Z,1015.06
2023-02-10T01:01:00.043Z,1015.11
2023-02-10T01:01:59.992Z,1015.12
2023-02-10T01:03:00.023Z,1015.14
2023-02-10T01:03:59.974Z,1015.17
2023-02-10T01:04:59.949Z,1015.14
2023-02-10T01:05:59.950Z,1015.16
2023-02-10T01:06:59.942Z,1015.05
2023-02-10T01:07:59.929Z,1015.19
2023-02-10T01:08:59.928Z,1015.15
2023-02-10T01:09:59.907Z,1015.09
2023-02-10T01:10:59.884Z,1015.08
2023-02-10T01:11:59.887Z,1015.11
2023-02-10T01:13:01.855Z,1015.09
2023-02-10T01:13:59.875Z,1015.07
2023-02-10T01:14:59.844Z,1015.05
2023-02-10T01:15:59.865Z,1015.08
2023-02-10T01:16:59.831Z,1015.18
2023-02-10T01:17:59.823Z,1015.16
2023-02-10T01:18:59.815Z,1015.18
2023-02-10T01:19:59.839Z,1015.19
2023-02-10T01:20:59.807Z,1015.21
2023-02-10T01:21:59.776Z,1015.20
2023-02-10T01:22:59.763Z,1015.20
2023-02-10T01:23:59.775Z,1015.28
2023-02-10T01:24:59.744Z,1015.26
2023-02-10T01:25:59.735Z,1015.29
2023-02-10T01:26:59.724Z,1015.28
2023-02-10T01:27:59.853Z,1015.23
2023-02-10T01:28:59.726Z,1015.23
2023-02-10T01:29:59.707Z,1015.22
2023-02-10T01:30:59.686Z,1015.23
2023-02-10T01:31:59.675Z,1015.30
2023-02-10T01:32:59.667Z,1015.25
2023-02-10T01:33:59.681Z,1015.30
2023-02-10T01:34:59.640Z,1015.28
2023-02-10T01:35:59.628Z,1015.26
2023-02-10T01:36:59.617Z,1015.30
2023-02-10T01:37:59.608Z,1015.29
2023-02-10T01:38:59.622Z,1015.34
2023-02-10T01:39:59.598Z,1015.29
2023-02-10T01:40:59.577Z,1015.29
2023-02-10T01:41:59.583Z,1015.34
2023-02-10T01:42:59.556Z,1015.33
2023-02-10T01:43:59.571Z,1015.36
2023-02-10T01:44:59.538Z,1015.34
2023-02-10T01:45:59.598Z,1015.31
2023-02-10T01:46:59.515Z,1015.34
2023-02-10T01:47:59.512Z,1015.27
2023-02-10T01:48:59.513Z,1015.32
2023-02-10T01:49:59.502Z,1015.29
2023-02-10T01:50:59.475Z,1015.24
2023-02-10T01:51:59.469Z,1015.22
2023-02-10T01:52:59.453Z,1015.24
2023-02-10T01:53:59.460Z,1015.29
2023-02-10T01:54:59.430Z,1015.26
2023-02-10T01:55:59.424Z,1015.29
2023-02-10T01:56:59.431Z,1015.30
2023-02-10T01:57:59.416Z,1015.25
2023-02-10T01:58:59.412Z,1015.29
2023-02-10T01:59:59.393Z,1015.27
2023-02-10T02:00:59.419Z,1015.21
2023-02-10T02:01:59.379Z,1015.28
2023-02-10T02:02:59.352Z,1015.25
2023-02-10T02:03:59.381Z,1015.24
2023-02-10T02:04:59.339Z,1015.22
2023-02-10T02:05:59.313Z,1015.26
2023-02-10T02:06:59.321Z,1015.22
2023-02-10T02:07:59.290Z,1015.23
2023-02-10T02:08:59.314Z,1015.22
2023-02-10T02:09:59.276Z,1015.13
2023-02-10T02:10:59.270Z,1015.19
2023-02-10T02:11:59.259Z,1015.24
2023-02-10T02:12:59.261Z,1015.24
2023-02-10T02:13:59.266Z,1015.29
2023-02-10T02:14:59.228Z,1015.31
2023-02-10T02:15:59.236Z,1015.27
2023-02-10T02:16:59.208Z,1015.30
2023-02-10T02:17:59.196Z,1015.23
2023-02-10T02:18:59.208Z,1015.25
2023-02-10T02:19:59.181Z,1015.25
2023-02-10T02:20:59.182Z,1015.23
2023-02-10T02:21:59.149Z,1015.22
2023-02-10T02:22:59.151Z,1015.19
2023-02-10T02:23:59.151Z,1015.22
2023-02-10T02:24:59.139Z,1015.20
2023-02-10T02:25:59.114Z,1015.21
2023-02-10T02:26:59.904Z,1015.28
2023-02-10T02:27:59.140Z,1015.29
2023-02-10T02:28:59.099Z,1015.24
2023-02-10T02:29:59.072Z,1015.23
2023-02-10T02:30:59.159Z,1015.19
2023-02-10T02:31:59.067Z,1015.18
2023-02-10T02:32:59.046Z,1015.19
2023-02-10T02:33:59.052Z,1015.24
2023-02-10T02:34:59.025Z,1015.24
2023-02-10T02:35:59.010Z,1015.18
2023-02-10T02:36:59.003Z,1015.25
2023-02-10T02:37:58.990Z,1015.16
2023-02-10T02:38:59.001Z,1015.16
2023-02-10T02:39:58.973Z,1015.16
2023-02-10T02:40:58.967Z,1015.14
2023-02-10T02:41:58.950Z,1015.11
2023-02-10T02:42:58.946Z,1015.11
2023-02-10T02:43:58.945Z,1015.09
2023-02-10T02:44:58.933Z,1015.09
2023-02-10T02:45:58.914Z,1015.17
2023-02-10T02:46:58.945Z,1015.10
2023-02-10T02:47:58.893Z,1015.10
2023-02-10T02:48:58.912Z,1015.15
2023-02-10T02:49:58.875Z,1015.16
2023-02-10T02:50:58.866Z,1015.19
2023-02-10T02:51:58.856Z,1015.18
2023-02-10T02:52:58.848Z,1015.20
2023-02-10T02:53:58.841Z,1015.20
2023-02-10T02:54:58.839Z,1015.22
2023-02-10T02:55:58.821Z,1015.19
2023-02-10T02:56:58.804Z,1015.19
2023-02-10T02:57:58.800Z,1015.12
2023-02-10T02:58:58.802Z,1015.16
2023-02-10T02:59:58.766Z,1015.14
2023-02-10T03:00:58.775Z,1015.12
2023-02-10T03:01:58.776Z,1015.20
2023-02-10T03:02:58.744Z,1015.16
2023-02-10T03:03:58.801Z,1015.17
2023-02-10T03:04:58.724Z,1015.17
2023-02-10T03:05:58.713Z,1015.23
2023-02-10T03:06:58.698Z,1015.22
2023-02-10T03:07:58.705Z,1015.19
2023-02-10T03:08:58.706Z,1015.22
2023-02-10T03:09:58.667Z,1015.23
2023-02-10T03:10:58.705Z,1015.26
2023-02-10T03:11:58.647Z,1015.27
2023-02-10T03:12:58.641Z,1015.21
2023-02-10T03:13:58.656Z,1015.20
2023-02-10T03:14:58.644Z,1015.28
2023-02-10T03:15:58.668Z,1015.29
2023-02-10T03:16:58.599Z,1015.26
2023-02-10T03:17:58.589Z,1015.36
2023-02-10T03:18:58.599Z,1015.31
2023-02-10T03:19:58.580Z,1015.35
2023-02-10T03:20:58.576Z,1015.35
2023-02-10T03:21:58.552Z,1015.38
2023-02-10T03:22:58.537Z,1015.36
2023-02-10T03:23:58.561Z,1015.33
2023-02-10T03:24:58.516Z,1015.38
2023-02-10T03:25:58.507Z,1015.35
2023-02-10T03:26:58.497Z,1015.32
2023-02-10T03:27:58.505Z,1015.37
2023-02-10T03:28:58.486Z,1015.35
2023-02-10T03:29:58.462Z,1015.36
2023-02-10T03:30:58.455Z,1015.30
2023-02-10T03:31:58.464Z,1015.33
2023-02-10T03:32:58.428Z,1015.37
2023-02-10T03:33:58.427Z,1015.42
2023-02-10T03:34:58.409Z,1015.46
2023-02-10T03:35:58.387Z,1015.43
2023-02-10T03:36:58.388Z,1015.42
2023-02-10T03:37:58.366Z,1015.45
2023-02-10T03:38:58.381Z,1015.46
2023-02-10T03:39:58.354Z,1015.50
2023-02-10T03:40:58.348Z,1015.56
2023-02-10T03:41:58.338Z,1015.51
2023-02-10T03:42:58.322Z,1015.51
2023-02-10T03:43:58.331Z,1015.50
2023-02-10T03:44:58.309Z,1015.44
2023-02-10T03:45:58.310Z,1015.44
2023-02-10T03:46:58.289Z,1015.49
2023-02-10T03:47:58.277Z,1015.48
2023-02-10T03:48:58.279Z,1015.49
2023-02-10T03:49:58.249Z,1015.45
2023-02-10T03:50:58.246Z,1015.44
2023-02-10T03:51:58.245Z,1015.43
2023-02-10T03:52:58.218Z,1015.45
2023-02-10T03:53:58.221Z,1015.43
2023-02-10T03:54:58.192Z,1015.42
2023-02-10T03:55:58.185Z,1015.40
2023-02-10T03:56:58.192Z,1015.45
2023-02-10T03:57:58.162Z,1015.46
2023-02-10T03:58:58.248Z,1015.47
2023-02-10T03:59:58.153Z,1015.53
2023-02-10T04:00:58.186Z,1015.44
2023-02-10T04:01:58.135Z,1015.43
2023-02-10T04:02:58.115Z,1015.40
2023-02-10T04:03:58.125Z,1015.40
2023-02-10T04:04:58.094Z,1015.38
2023-02-10T04:05:58.421Z,1015.36
2023-02-10T04:06:58.084Z,1015.38
2023-02-10T04:07:58.057Z,1015.37
2023-02-10T04:08:58.066Z,1015.42
2023-02-10T04:09:58.065Z,1015.34
2023-02-10T04:10:58.057Z,1015.39
2023-02-10T04:11:58.015Z,1015.38
2023-02-10T04:12:58.015Z,1015.39
2023-02-10T04:13:58.002Z,1015.36
2023-02-10T04:14:58.016Z,1015.40
2023-02-10T04:15:58.004Z,1015.28
2023-02-10T04:16:57.973Z,1015.34
2023-02-10T04:17:57.980Z,1015.35
2023-02-10T04:18:57.946Z,1015.35
2023-02-10T04:19:57.947Z,1015.42
2023-02-10T04:20:57.927Z,1015.40
2023-02-10T04:21:57.917Z,1015.41
2023-02-10T04:22:57.909Z,1015.40
2023-02-10T04:23:57.898Z,1015.47
2023-02-10T04:24:57.930Z,1015.54
2023-02-10T04:25:57.871Z,1015.43
2023-02-10T04:26:57.879Z,1015.44
2023-02-10T04:27:57.896Z,1015.40
2023-02-10T04:28:57.848Z,1015.44
2023-02-10T04:29:57.886Z,1015.50
2023-02-10T04:30:57.960Z,1015.49
2023-02-10T04:31:57.877Z,1015.55
2023-02-10T04:32:57.814Z,1015.55
2023-02-10T04:33:57.805Z,1015.52
2023-02-10T04:34:57.805Z,1015.53
2023-02-10T04:35:57.779Z,1015.59
2023-02-10T04:36:57.766Z,1015.62
2023-02-10T04:37:57.757Z,1015.59
2023-02-10T04:38:57.771Z,1015.60
2023-02-10T04:39:57.772Z,1015.59
2023-02-10T04:40:57.738Z,1015.53
2023-02-10T04:41:57.717Z,1015.65
2023-02-10T04:42:57.715Z,1015.55
2023-02-10T04:43:57.691Z,1015.63
2023-02-10T04:44:57.711Z,1015.61
2023-02-10T04:45:57.684Z,1015.61
2023-02-10T04:46:57.726Z,1015.64
2023-02-10T04:47:57.656Z,1015.73
2023-02-10T04:48:57.674Z,1015.68
2023-02-10T04:49:57.655Z,1015.72
2023-02-10T04:50:57.660Z,1015.68
2023-02-10T04:51:57.634Z,1015.72
2023-02-10T04:52:57.618Z,1015.68
2023-02-10T04:53:57.593Z,1015.69
2023-02-10T04:54:57.606Z,1015.75
2023-02-10T04:55:57.573Z,1015.71
2023-02-10T04:56:57.564Z,1015.84
2023-02-10T04:57:57.577Z,1015.75
2023-02-10T04:58:59.822Z,1015.70
2023-02-10T04:59:57.555Z,1015.80
2023-02-10T05:00:57.608Z,1015.68
2023-02-10T05:01:57.534Z,1015.69
2023-02-10T05:02:57.511Z,1015.83
2023-02-10T05:03:57.493Z,1015.75
2023-02-10T05:04:57.503Z,1015.73
2023-02-10T05:05:57.603Z,1015.77
2023-02-10T05:06:57.464Z,1015.79
2023-02-10T05:07:57.463Z,1015.72
2023-02-10T05:08:57.436Z,1015.70
2023-02-10T05:09:58.859Z,1015.73
2023-02-10T05:10:57.433Z,1015.69
2023-02-10T05:11:57.404Z,1015.76
2023-02-10T05:12:57.521Z,1015.63
2023-02-10T05:13:57.396Z,1015.72
2023-02-10T05:14:57.409Z,1015.71
2023-02-10T05:15:57.435Z,1015.70
2023-02-10T05:16:57.364Z,1015.74
2023-02-10T05:17:57.344Z,1015.72
2023-02-10T05:18:57.345Z,1015.73
2023-02-10T05:19:57.334Z,1015.67
2023-02-10T05:20:57.315Z,1015.68
2023-02-10T05:21:57.306Z,1015.73
2023-02-10T05:22:57.306Z,1015.66
2023-02-10T05:23:57.284Z,1015.76
2023-02-10T05:24:57.305Z,1015.66
2023-02-10T05:25:57.265Z,1015.70
2023-02-10T05:26:57.254Z,1015.61
2023-02-10T05:27:57.262Z,1015.63
2023-02-10T05:28:57.239Z,1015.66
2023-02-10T05:29:57.236Z,1015.66
2023-02-10T05:30:57.226Z,1015.59
2023-02-10T05:31:57.280Z,1015.65
2023-02-10T05:32:57.188Z,1015.60
2023-02-10T05:33:57.187Z,1015.66
2023-02-10T05:34:57.197Z,1015.68
2023-02-10T05:35:57.159Z,1015.64
2023-02-10T05:36:57.164Z,1015.65
2023-02-10T05:37:57.129Z,1015.69
2023-02-10T05:38:57.131Z,1015.68
2023-02-10T05:39:57.137Z,1015.73
2023-02-10T05:40:57.126Z,1015.71
2023-02-10T05:41:57.091Z,1015.68
2023-02-10T05:42:57.092Z,1015.67
2023-02-10T05:43:57.104Z,1015.67
2023-02-10T05:44:57.092Z,1015.68
2023-02-10T05:45:57.061Z,1015.68
2023-02-10T05:46:57.054Z,1015.63
2023-02-10T05:47:57.034Z,1015.67
2023-02-10T05:48:57.026Z,1015.69
2023-02-10T05:49:57.039Z,1015.69
2023-02-10T05:50:57.017Z,1015.64
2023-02-10T05:51:57.008Z,1015.67
2023-02-10T05:52:57.039Z,1015.69
2023-02-10T05:53:56.982Z,1015.71
2023-02-10T05:54:56.986Z,1015.72
2023-02-10T05:55:56.965Z,1015.67
2023-02-10T05:56:56.948Z,1015.71
2023-02-10T05:57:56.927Z,1015.75
2023-02-10T05:58:56.928Z,1015.77
2023-02-10T05:59:56.929Z,1015.75
2023-02-10T06:00:56.949Z,1015.85
2023-02-10T06:01:57.126Z,1015.85
2023-02-10T06:02:56.932Z,1015.86
2023-02-10T06:03:56.876Z,1015.87
2023-02-10T06:04:56.889Z,1015.94
2023-02-10T06:05:56.849Z,1015.92
2023-02-10T06:06:56.839Z,1015.96
2023-02-10T06:07:56.852Z,1015.93
2023-02-10T06:08:56.839Z,1015.88
2023-02-10T06:09:56.837Z,1015.90
2023-02-10T06:10:56.812Z,1015.93
2023-02-10T06:11:56.794Z,1015.93
2023-02-10T06:12:56.793Z,1015.93
2023-02-10T06:13:56.781Z,1015.92
2023-02-10T06:14:56.780Z,1016.00
2023-02-10T06:15:56.751Z,1015.96
2023-02-10T06:16:56.759Z,1016.00
2023-02-10T06:17:56.734Z,1015.97
2023-02-10T06:18:56.722Z,1015.99
2023-02-10T06:19:56.731Z,1015.96
2023-02-10T06:20:56.704Z,1016.06
2023-02-10T06:21:56.694Z,1016.07
2023-02-10T06:22:56.675Z,1016.12
2023-02-10T06:23:56.674Z,1016.13
2023-02-10T06:24:58.408Z,1016.15
2023-02-10T06:25:56.655Z,1016.17
2023-02-10T06:26:56.649Z,1016.22
2023-02-10T06:27:56.597Z,1016.24
2023-02-10T06:28:56.563Z,1016.26
2023-02-10T06:29:56.634Z,1016.27
2023-02-10T06:30:56.686Z,1016.27
2023-02-10T06:31:56.604Z,1016.26
2023-02-10T06:32:56.582Z,1016.30
2023-02-10T06:33:56.575Z,1016.31
2023-02-10T06:34:56.563Z,1016.28
2023-02-10T06:35:56.512Z,1016.22
2023-02-10T06:36:56.489Z,1016.29
2023-02-10T06:37:56.482Z,1016.26
2023-02-10T06:38:56.454Z,1016.27
2023-02-10T06:39:56.462Z,1016.26
2023-02-10T06:40:56.436Z,1016.31
2023-02-10T06:41:56.434Z,1016.24
2023-02-10T06:42:56.423Z,1016.29
2023-02-10T06:43:56.403Z,1016.32
2023-02-10T06:44:56.423Z,1016.28
2023-02-10T06:45:56.436Z,1016.33
2023-02-10T06:46:58.910Z,1016.39
2023-02-10T06:47:56.374Z,1016.39
2023-02-10T06:48:56.356Z,1016.38
2023-02-10T06:49:56.385Z,1016.39
2023-02-10T06:50:56.341Z,1016.40
2023-02-10T06:51:56.351Z,1016.42
2023-02-10T06:52:56.304Z,1016.41
2023-02-10T06:53:56.304Z,1016.41
2023-02-10T06:54:56.305Z,1016.40
2023-02-10T06:55:56.282Z,1016.41
2023-02-10T06:56:56.285Z,1016.41
2023-02-10T06:57:56.265Z,1016.37
2023-02-10T06:58:56.244Z,1016.49
2023-02-10T06:59:56.277Z,1016.46
2023-02-10T07:00:56.230Z,1016.52
2023-02-10T07:01:56.216Z,1016.52
2023-02-10T07:02:56.327Z,1016.50
2023-02-10T07:03:56.208Z,1016.48
2023-02-10T07:04:56.207Z,1016.44
2023-02-10T07:05:56.189Z,1016.52
2023-02-10T07:06:56.173Z,1016.43
2023-02-10T07:07:56.167Z,1016.44
2023-02-10T07:08:56.172Z,1016.43
2023-02-10T07:09:56.161Z,1016.45
2023-02-10T07:10:56.161Z,1016.51
2023-02-10T07:11:56.124Z,1016.52
2023-02-10T07:12:56.858Z,1016.53
2023-02-10T07:13:56.104Z,1016.53
2023-02-10T07:14:56.096Z,1016.58
2023-02-10T07:15:56.160Z,1016.63
2023-02-10T07:16:56.078Z,1016.59
2023-02-10T07:17:56.076Z,1016.58
2023-02-10T07:18:56.066Z,1016.63
2023-02-10T07:19:56.055Z,1016.65
2023-02-10T07:20:56.045Z,1016.64
2023-02-10T07:21:56.023Z,1016.69
2023-02-10T07:22:56.013Z,1016.67
2023-02-10T07:23:55.997Z,1016.71
2023-02-10T07:24:55.997Z,1016.69
2023-02-10T07:25:55.996Z,1016.72
2023-02-10T07:26:55.971Z,1016.71
2023-02-10T07:27:56.010Z,1016.76
2023-02-10T07:28:55.947Z,1016.71
2023-02-10T07:29:55.941Z,1016.73
2023-02-10T07:30:56.019Z,1016.76
2023-02-10T07:31:55.963Z,1016.73
2023-02-10T07:32:55.908Z,1016.84
2023-02-10T07:33:55.899Z,1016.82
2023-02-10T07:34:55.889Z,1016.78
2023-02-10T07:35:55.898Z,1016.81
2023-02-10T07:36:55.871Z,1016.79
2023-02-10T07:37:55.872Z,1016.79
2023-02-10T07:38:55.849Z,1016.75
2023-02-10T07:39:55.872Z,1016.82
2023-02-10T07:40:55.852Z,1016.86
2023-02-10T07:41:55.837Z,1016.83
2023-02-10T07:42:55.807Z,1016.81
2023-02-10T07:43:55.820Z,1016.81
2023-02-10T07:44:55.779Z,1016.84
2023-02-10T07:45:55.832Z,1016.89
2023-02-10T07:46:55.760Z,1016.83
2023-02-10T07:47:55.761Z,1016.88
2023-02-10T07:48:55.740Z,1016.90
2023-02-10T07:49:55.730Z,1016.92
2023-02-10T07:50:55.746Z,1016.92
2023-02-10T07:51:55.721Z,1016.95
2023-02-10T07:52:56.451Z,1016.92
2023-02-10T07:53:55.701Z,1016.86
2023-02-10T07:54:55.691Z,1016.94
2023-02-10T07:55:55.698Z,1016.88
2023-02-10T07:56:55.659Z,1016.89
2023-02-10T07:57:55.663Z,1016.91
2023-02-10T07:58:55.664Z,1016.94
2023-02-10T07:59:55.632Z,1016.89
2023-02-10T08:00:55.644Z,1016.88
2023-02-10T08:01:55.616Z,1016.92
2023-02-10T08:02:55.600Z,1016.91
2023-02-10T08:03:55.605Z,1016.93
2023-02-10T08:04:55.643Z,1016.92
2023-02-10T08:05:55.595Z,1016.96
2023-02-10T08:06:55.560Z,1016.90
2023-02-10T08:07:55.553Z,1016.87
2023-02-10T08:08:55.548Z,1016.93
2023-02-10T08:09:57.254Z,1016.95
2023-02-10T08:10:55.542Z,1016.97
2023-02-10T08:11:55.514Z,1016.98
2023-02-10T08:12:55.497Z,1016.95
2023-02-10T08:13:55.492Z,1017.00
2023-02-10T08:14:55.475Z,1017.02
2023-02-10T08:15:55.562Z,1017.06
2023-02-10T08:16:55.463Z,1017.12
2023-02-10T08:17:55.455Z,1017.12
2023-02-10T08:18:56.754Z,1017.08
2023-02-10T08:19:55.444Z,1017.07
2023-02-10T08:20:55.448Z,1017.15
2023-02-10T08:21:55.408Z,1017.08
2023-02-10T08:22:55.416Z,1017.14
2023-02-10T08:23:55.543Z,1017.10
2023-02-10T08:24:55.387Z,1017.07
2023-02-10T08:25:55.389Z,1017.08
2023-02-10T08:26:55.356Z,1017.08
2023-02-10T08:27:55.401Z,1017.09
2023-02-10T08:28:55.330Z,1017.06
2023-02-10T08:29:55.330Z,1017.06
2023-02-10T08:30:55.442Z,1017.05
2023-02-10T08:31:55.374Z,1017.13
2023-02-10T08:32:55.290Z,1017.08
2023-02-10T08:33:55.294Z,1017.13
2023-02-10T08:34:55.270Z,1017.10
2023-02-10T08:35:55.299Z,1017.14
2023-02-10T08:36:55.263Z,1017.05
2023-02-10T08:37:55.274Z,1017.03
2023-02-10T08:38:55.238Z,1017.04
2023-02-10T08:39:55.235Z,1017.00
2023-02-10T08:40:55.284Z,1017.04
2023-02-10T08:41:55.205Z,1017.14
2023-02-10T08:42:55.190Z,1017.07
2023-02-10T08:43:55.183Z,1017.05
2023-02-10T08:44:55.175Z,1017.07
2023-02-10T08:45:55.189Z,1017.02
2023-02-10T08:46:55.223Z,1017.08
2023-02-10T08:47:55.143Z,1017.10
2023-02-10T08:48:55.142Z,1017.11
2023-02-10T08:49:55.133Z,1017.09
2023-02-10T08:50:55.137Z,1017.12
2023-02-10T08:51:55.113Z,1017.08
2023-02-10T08:52:55.109Z,1017.12
2023-02-10T08:53:55.088Z,1017.12
2023-02-10T08:54:55.084Z,1017.16
2023-02-10T08:55:55.085Z,1017.16
2023-02-10T08:56:55.057Z,1017.14
2023-02-10T08:57:55.055Z,1017.09
2023-02-10T08:58:55.036Z,1017.21
2023-02-10T08:59:55.023Z,1017.16
2023-02-10T09:00:55.034Z,1017.16
2023-02-10T09:01:55.047Z,1017.16
2023-02-10T09:02:55.051Z,1017.10
2023-02-10T09:03:54.987Z,1017.15
2023-02-10T09:05:08.854Z,1017.18
2023-02-10T09:05:55.987Z,1017.20
2023-02-10T09:06:54.969Z,1017.16
2023-02-10T09:07:54.941Z,1017.12
2023-02-10T09:08:54.921Z,1017.14
2023-02-10T09:09:54.920Z,1017.21
2023-02-10T09:10:54.911Z,1017.22
2023-02-10T09:11:54.932Z,1017.17
2023-02-10T09:12:54.889Z,1017.30
2023-02-10T09:13:54.878Z,1017.24
2023-02-10T09:14:54.889Z,1017.24
2023-02-10T09:15:54.879Z,1017.30
2023-02-10T09:16:54.858Z,1017.25
2023-02-10T09:17:54.850Z,1017.23
2023-02-10T09:18:54.821Z,1017.25
2023-02-10T09:19:54.832Z,1017.34
2023-02-10T09:20:54.801Z,1017.19
2023-02-10T09:21:54.817Z,1017.24
2023-02-10T09:22:54.780Z,1017.25
2023-02-10T09:23:54.783Z,1017.08
2023-02-10T09:24:54.767Z,1017.19
2023-02-10T09:25:54.757Z,1017.18
2023-02-10T09:26:54.751Z,1017.23
2023-02-10T09:27:54.776Z,1017.08
2023-02-10T09:28:54.722Z,1017.14
2023-02-10T09:29:54.712Z,1017.11
2023-02-10T09:30:54.759Z,1017.12
2023-02-10T09:31:54.767Z,1017.16
2023-02-10T09:32:54.708Z,1017.12
2023-02-10T09:33:54.673Z,1017.11
2023-02-10T09:34:54.655Z,1017.16
2023-02-10T09:35:54.653Z,1017.19
2023-02-10T09:36:54.675Z,1017.19
2023-02-10T09:37:54.648Z,1017.23
2023-02-10T09:38:54.612Z,1017.16
2023-02-10T09:39:54.614Z,1017.21
2023-02-10T09:40:54.610Z,1017.21
2023-02-10T09:41:55.383Z,1017.13
2023-02-10T09:42:54.577Z,1017.17
2023-02-10T09:43:54.600Z,1017.15
2023-02-10T09:44:54.570Z,1017.16
2023-02-10T09:45:54.589Z,1017.15
2023-02-10T09:46:54.560Z,1017.17
2023-02-10T09:47:54.538Z,1017.15
2023-02-10T09:48:54.525Z,1017.18
2023-02-10T09:49:54.508Z,1017.18
2023-02-10T09:50:54.519Z,1017.23
2023-02-10T09:51:54.518Z,1017.18
2023-02-10T09:52:54.480Z,1017.16
2023-02-10T09:53:54.479Z,1017.29
2023-02-10T09:54:54.452Z,1017.17
2023-02-10T09:55:54.441Z,1017.20
2023-02-10T09:56:54.450Z,1017.19
2023-02-10T09:57:54.431Z,1017.22
2023-02-10T09:58:54.422Z,1017.16
2023-02-10T09:59:54.416Z,1017.13
2023-02-10T10:00:54.431Z,1017.22
2023-02-10T10:01:54.472Z,1017.22
2023-02-10T10:02:54.390Z,1017.22
2023-02-10T10:03:54.375Z,1017.25
2023-02-10T10:04:54.367Z,1017.19
2023-02-10T10:05:54.397Z,1017.26
2023-02-10T10:06:54.357Z,1017.24
2023-02-10T10:07:54.338Z,1017.23
2023-02-10T10:08:54.342Z,1017.22
2023-02-10T10:09:54.311Z,1017.26
2023-02-10T10:10:54.297Z,1017.26
2023-02-10T10:11:54.336Z,1017.26
2023-02-10T10:12:54.282Z,1017.23
2023-02-10T10:13:54.272Z,1017.25
2023-02-10T10:14:54.274Z,1017.27
2023-02-10T10:15:54.257Z,1017.21
2023-02-10T10:16:54.261Z,1017.25
2023-02-10T10:17:54.235Z,1017.27
2023-02-10T10:18:54.223Z,1017.26
2023-02-10T10:19:54.201Z,1017.29
2023-02-10T10:20:54.192Z,1017.26
2023-02-10T10:21:54.214Z,1017.29
2023-02-10T10:22:54.173Z,1017.29
2023-02-10T10:23:54.164Z,1017.24
2023-02-10T10:24:54.183Z,1017.24
2023-02-10T10:25:54.145Z,1017.30
2023-02-10T10:26:54.154Z,1017.23
2023-02-10T10:27:54.204Z,1017.26
2023-02-10T10:28:54.118Z,1017.30
2023-02-10T10:29:54.170Z,1017.27
2023-02-10T10:30:54.153Z,1017.28
2023-02-10T10:31:54.152Z,1017.26
2023-02-10T10:32:54.080Z,1017.27
2023-02-10T10:33:54.066Z,1017.27
2023-02-10T10:34:54.167Z,1017.17
2023-02-10T10:35:54.040Z,1017.20
2023-02-10T10:36:54.046Z,1017.08
2023-02-10T10:37:54.020Z,1017.16
2023-02-10T10:38:54.075Z,1017.15
2023-02-10T10:39:54.019Z,1017.14
2023-02-10T10:40:53.988Z,1017.08
2023-02-10T10:41:54.014Z,1017.08
2023-02-10T10:42:53.977Z,1017.07
2023-02-10T10:43:53.968Z,1016.99
2023-02-10T10:44:53.954Z,1017.05
2023-02-10T10:45:54.478Z,1017.06
2023-02-10T10:46:53.949Z,1017.06
2023-02-10T10:47:53.909Z,1016.99
2023-02-10T10:48:53.911Z,1017.01
2023-02-10T10:49:53.890Z,1016.98
2023-02-10T10:50:53.890Z,1017.03
2023-02-10T10:51:53.895Z,1017.02
2023-02-10T10:52:53.889Z,1017.04
2023-02-10T10:53:53.849Z,1016.98
2023-02-10T10:54:53.843Z,1016.98
2023-02-10T10:55:53.828Z,1017.04
2023-02-10T10:56:53.848Z,1016.99
2023-02-10T10:57:53.822Z,1016.98
2023-02-10T10:58:53.810Z,1017.03
2023-02-10T10:59:53.788Z,1016.91
2023-02-10T11:00:53.786Z,1016.96
2023-02-10T11:01:53.948Z,1016.91
2023-02-10T11:02:53.767Z,1016.93
2023-02-10T11:03:53.745Z,1017.03
2023-02-10T11:04:53.746Z,1016.98
2023-02-10T11:05:53.726Z,1016.99
2023-02-10T11:06:53.744Z,1016.99
2023-02-10T11:07:53.715Z,1017.02
2023-02-10T11:08:53.698Z,1016.98
2023-02-10T11:09:53.686Z,1016.97
2023-02-10T11:10:53.676Z,1016.93
2023-02-10T11:11:53.685Z,1016.98
2023-02-10T11:12:53.660Z,1016.95
2023-02-10T11:13:53.656Z,1016.98
2023-02-10T11:14:53.670Z,1016.93
2023-02-10T11:15:53.617Z,1016.94
2023-02-10T11:16:53.698Z,1016.91
2023-02-10T11:17:53.616Z,1016.82
2023-02-10T11:18:53.617Z,1016.87
2023-02-10T11:19:53.578Z,1016.82
2023-02-10T11:20:53.574Z,1016.82
2023-02-10T11:21:53.597Z,1016.81
2023-02-10T11:22:53.548Z,1016.82
2023-02-10T11:23:53.547Z,1016.85
2023-02-10T11:24:53.531Z,1016.83
2023-02-10T11:25:53.533Z,1016.78
2023-02-10T11:26:53.549Z,1016.82
2023-02-10T11:27:53.578Z,1016.75
2023-02-10T11:28:53.505Z,1016.72
2023-02-10T11:29:53.484Z,1016.72
2023-02-10T11:30:53.613Z,1016.71
2023-02-10T11:31:53.546Z,1016.64
2023-02-10T11:32:53.473Z,1016.69
2023-02-10T11:33:53.432Z,1016.68
2023-02-10T11:34:53.457Z,1016.74
2023-02-10T11:35:53.416Z,1016.68
2023-02-10T11:36:53.417Z,1016.71
2023-02-10T11:37:53.417Z,1016.66
2023-02-10T11:38:53.414Z,1016.68
2023-02-10T11:39:53.370Z,1016.65
2023-02-10T11:40:53.369Z,1016.62
2023-02-10T11:41:53.354Z,1016.65
2023-02-10T11:42:53.365Z,1016.57
2023-02-10T11:43:53.347Z,1016.51
2023-02-10T11:44:53.323Z,1016.49
2023-02-10T11:45:53.332Z,1016.49
2023-02-10T11:46:53.305Z,1016.42
2023-02-10T11:47:53.306Z,1016.40
2023-02-10T11:48:53.283Z,1016.44
2023-02-10T11:49:53.258Z,1016.35
2023-02-10T11:50:53.256Z,1016.33
2023-02-10T11:51:53.238Z,1016.31
2023-02-10T11:52:53.298Z,1016.37
2023-02-10T11:53:53.222Z,1016.31
2023-02-10T11:54:53.234Z,1016.33
2023-02-10T11:55:53.209Z,1016.31
2023-02-10T11:56:53.210Z,1016.31
2023-02-10T11:57:53.208Z,1016.29
2023-02-10T11:58:53.177Z,1016.37
2023-02-10T11:59:53.154Z,1016.29
2023-02-10T12:00:53.146Z,1016.27
2023-02-10T12:01:53.142Z,1016.37
2023-02-10T12:02:53.201Z,1016.35
2023-02-10T12:03:53.107Z,1016.30
2023-02-10T12:04:53.104Z,1016.28